createdAt,value
2022-11-26T00:01:26.470Z,27.80
2022-11-26T00:03:54.913Z,27.80
2022-11-26T00:06:39.461Z,27.80
2022-11-26T00:09:14.203Z,27.80
2022-11-26T00:11:42.881Z,27.80
2022-11-26T00:14:15.775Z,27.70
2022-11-26T00:16:45.392Z,27.70
2022-11-26T00:19:13.695Z,27.70
2022-11-26T00:21:42.951Z,27.80
2022-11-26T00:24:29.037Z,27.70
2022-11-26T00:26:59.364Z,27.70
2022-11-26T00:29:27.591Z,27.80
2022-11-26T00:31:55.956Z,27.80
2022-11-26T00:34:24.252Z,27.80
2022-11-26T00:36:52.434Z,27.80
2022-11-26T00:39:24.420Z,27.80
2022-11-26T00:41:53.862Z,27.80
2022-11-26T00:44:26.184Z,27.70
2022-11-26T00:46:54.394Z,27.70
2022-11-26T00:49:22.577Z,27.80
2022-11-26T00:51:50.969Z,27.80
2022-11-26T00:54:20.255Z,27.80
2022-11-26T00:56:49.652Z,27.90
2022-11-26T00:59:22.793Z,27.90
2022-11-26T01:01:51.188Z,27.80
2022-11-26T01:04:19.452Z,27.80
2022-11-26T01:06:47.817Z,27.70
2022-11-26T01:09:21.634Z,27.70
2022-11-26T01:11:54.046Z,27.70
2022-11-26T01:14:23.667Z,27.70
2022-11-26T01:16:54.422Z,27.70
2022-11-26T01:19:22.890Z,27.70
2022-11-26T01:21:50.952Z,27.70
2022-11-26T01:24:19.265Z,27.70
2022-11-26T01:26:47.501Z,27.70
2022-11-26T01:29:18.245Z,27.70
2022-11-26T01:31:46.972Z,27.60
2022-11-26T01:34:15.330Z,27.50
2022-11-26T01:36:44.024Z,27.50
2022-11-26T01:39:18.284Z,27.50
2022-11-26T01:41:57.443Z,27.50
2022-11-26T01:44:31.483Z,27.40
2022-11-26T01:47:01.424Z,27.40
2022-11-26T01:49:35.040Z,27.40
2022-11-26T01:52:18.165Z,27.30
2022-11-26T01:54:46.742Z,27.20
2022-11-26T01:57:22.278Z,27.30
2022-11-26T01:59:54.347Z,27.20
2022-11-26T02:02:24.846Z,27.20
2022-11-26T02:05:18.867Z,27.20
2022-11-26T02:07:47.841Z,27.20
2022-11-26T02:10:16.222Z,27.10
2022-11-26T02:12:44.761Z,27.10
2022-11-26T02:15:13.690Z,27.00
2022-11-26T02:18:01.740Z,27.10
2022-11-26T02:20:57.380Z,27.10
2022-11-26T02:23:44.301Z,27.10
2022-11-26T02:26:48.330Z,27.00
2022-11-26T02:29:37.894Z,27.00
2022-11-26T02:32:18.348Z,26.90
2022-11-26T02:34:50.116Z,26.90
2022-11-26T02:37:34.348Z,26.90
2022-11-26T02:40:02.803Z,26.90
2022-11-26T02:42:33.405Z,26.80
2022-11-26T02:45:16.904Z,26.80
2022-11-26T02:47:49.418Z,26.80
2022-11-26T02:50:29.799Z,26.70
2022-11-26T02:53:00.143Z,26.60
2022-11-26T02:55:33.326Z,26.50
2022-11-26T02:58:02.109Z,26.50
2022-11-26T03:00:32.186Z,26.40
2022-11-26T03:03:13.832Z,26.50
2022-11-26T03:05:43.529Z,26.40
2022-11-26T03:08:11.731Z,26.40
2022-11-26T03:10:39.993Z,26.40
2022-11-26T03:13:08.175Z,26.40
2022-11-26T03:15:36.288Z,26.30
2022-11-26T03:18:04.914Z,26.30
2022-11-26T03:20:33.098Z,26.30
2022-11-26T03:23:01.168Z,26.30
2022-11-26T03:25:29.730Z,26.30
2022-11-26T03:27:58.102Z,26.40
2022-11-26T03:30:26.455Z,26.30
2022-11-26T03:32:54.751Z,26.30
2022-11-26T03:35:23.300Z,26.20
2022-11-26T03:37:51.820Z,26.20
2022-11-26T03:40:20.189Z,26.20
2022-11-26T03:42:48.282Z,26.20
2022-11-26T03:45:16.573Z,26.10
2022-11-26T03:47:44.899Z,26.20
2022-11-26T03:50:13.147Z,26.10
2022-11-26T03:52:41.551Z,26.20
2022-11-26T03:55:10.212Z,26.20
2022-11-26T03:57:38.335Z,26.10
2022-11-26T04:00:08.057Z,26.10
2022-11-26T04:02:37.162Z,26.00
2022-11-26T04:05:05.800Z,26.00
2022-11-26T04:07:34.074Z,26.10
2022-11-26T04:10:02.316Z,26.10
2022-11-26T04:12:30.475Z,26.20
2022-11-26T04:14:58.603Z,26.10
2022-11-26T04:17:27.010Z,26.10
2022-11-26T04:19:55.038Z,26.10
2022-11-26T04:22:23.353Z,26.00
2022-11-26T04:24:51.378Z,26.00
2022-11-26T04:27:19.589Z,26.00
2022-11-26T04:29:47.829Z,26.00
2022-11-26T04:32:15.902Z,26.00
2022-11-26T04:34:44.048Z,26.00
2022-11-26T04:37:12.300Z,26.00
2022-11-26T04:39:40.486Z,25.90
2022-11-26T04:42:08.838Z,25.90
2022-11-26T04:44:37.226Z,25.90
2022-11-26T04:47:05.481Z,25.90
2022-11-26T04:49:33.753Z,25.90
2022-11-26T04:52:01.922Z,25.90
2022-11-26T04:54:30.039Z,25.90
2022-11-26T04:56:58.337Z,25.90
2022-11-26T04:59:26.470Z,25.90
2022-11-26T05:01:54.656Z,25.90
2022-11-26T05:04:22.819Z,26.00
2022-11-26T05:06:50.955Z,26.00
2022-11-26T05:09:19.009Z,26.00
2022-11-26T05:11:47.322Z,26.10
2022-11-26T05:14:15.433Z,26.00
2022-11-26T05:16:43.713Z,26.00
2022-11-26T05:19:12.068Z,26.00
2022-11-26T05:21:40.326Z,26.00
2022-11-26T05:24:08.480Z,26.00
2022-11-26T05:26:37.063Z,26.00
2022-11-26T05:29:05.141Z,26.00
2022-11-26T05:31:33.435Z,26.00
2022-11-26T05:34:01.782Z,25.90
2022-11-26T05:36:30.107Z,25.90
2022-11-26T05:38:58.382Z,25.80
2022-11-26T05:41:26.571Z,25.80
2022-11-26T05:43:54.927Z,25.80
2022-11-26T05:46:23.067Z,25.80
2022-11-26T05:48:51.371Z,25.80
2022-11-26T05:51:19.557Z,25.80
2022-11-26T05:53:47.733Z,25.70
2022-11-26T05:56:15.944Z,25.70
2022-11-26T05:58:44.484Z,25.70
2022-11-26T06:01:12.660Z,25.70
2022-11-26T06:03:40.883Z,25.60
2022-11-26T06:06:09.277Z,25.60
2022-11-26T06:08:37.700Z,25.60
2022-11-26T06:11:06.181Z,25.60
2022-11-26T06:13:34.281Z,25.60
2022-11-26T06:16:02.584Z,25.60
2022-11-26T06:18:31.008Z,25.60
2022-11-26T06:21:03.036Z,25.60
2022-11-26T06:23:33.107Z,25.50
2022-11-26T06:26:01.962Z,25.50
2022-11-26T06:28:29.998Z,25.50
2022-11-26T06:30:58.328Z,25.50
2022-11-26T06:33:26.714Z,25.50
2022-11-26T06:36:00.985Z,25.40
2022-11-26T06:38:29.797Z,25.40
2022-11-26T06:41:01.947Z,25.40
2022-11-26T06:43:30.895Z,25.50
2022-11-26T06:46:03.936Z,25.50
2022-11-26T06:48:32.858Z,25.60
2022-11-26T06:51:06.420Z,25.60
2022-11-26T06:53:35.369Z,25.60
2022-11-26T06:56:05.763Z,25.70
2022-11-26T06:58:34.581Z,25.60
2022-11-26T07:01:09.647Z,25.60
2022-11-26T07:03:38.409Z,25.60
2022-11-26T07:06:06.836Z,25.60
2022-11-26T07:08:35.320Z,25.60
2022-11-26T07:11:04.530Z,25.60
2022-11-26T07:13:32.842Z,25.60
2022-11-26T07:16:05.811Z,25.60
2022-11-26T07:18:34.392Z,25.70
2022-11-26T07:21:07.874Z,25.70
2022-11-26T07:23:36.624Z,25.80
2022-11-26T07:26:06.303Z,25.90
2022-11-26T07:28:35.988Z,25.90
2022-11-26T07:31:12.948Z,25.90
2022-11-26T07:33:45.371Z,25.90
2022-11-26T07:36:19.703Z,26.00
2022-11-26T07:38:48.576Z,26.00
2022-11-26T07:41:19.221Z,26.10
2022-11-26T07:43:48.354Z,26.10
2022-11-26T07:46:20.783Z,26.20
2022-11-26T07:48:49.441Z,26.20
2022-11-26T07:51:19.462Z,26.20
2022-11-26T07:53:49.040Z,26.30
2022-11-26T07:56:17.838Z,26.30
2022-11-26T07:58:46.125Z,26.40
2022-11-26T08:01:20.665Z,26.40
2022-11-26T08:03:50.349Z,26.50
2022-11-26T08:06:21.264Z,26.50
2022-11-26T08:08:49.885Z,26.60
2022-11-26T08:11:21.120Z,26.70
2022-11-26T08:14:01.299Z,26.80
2022-11-26T08:16:29.988Z,26.80
2022-11-26T08:19:00.223Z,26.80
2022-11-26T08:21:29.107Z,26.90
2022-11-26T08:23:57.657Z,27.00
2022-11-26T08:26:35.097Z,27.10
2022-11-26T08:29:04.881Z,27.00
2022-11-26T08:31:33.406Z,27.10
2022-11-26T08:34:03.467Z,27.00
2022-11-26T08:36:32.297Z,27.00
2022-11-26T08:39:01.545Z,27.10
2022-11-26T08:41:29.889Z,27.10
2022-11-26T08:44:07.166Z,27.20
2022-11-26T08:46:38.252Z,27.30
2022-11-26T08:49:08.204Z,27.40
2022-11-26T08:51:36.611Z,27.50
2022-11-26T08:54:05.463Z,27.50
2022-11-26T08:56:34.067Z,27.60
2022-11-26T08:59:02.674Z,27.70
2022-11-26T09:01:33.544Z,27.70
2022-11-26T09:04:03.652Z,27.80
2022-11-26T09:06:34.174Z,27.90
2022-11-26T09:09:03.614Z,27.90
2022-11-26T09:11:33.272Z,28.10
2022-11-26T09:14:01.797Z,28.10
2022-11-26T09:16:30.303Z,28.20
2022-11-26T09:19:01.179Z,28.20
2022-11-26T09:21:30.020Z,28.20
2022-11-26T09:23:58.686Z,28.30
2022-11-26T09:26:27.318Z,28.30
2022-11-26T09:28:55.777Z,28.40
2022-11-26T09:31:24.040Z,28.50
2022-11-26T09:33:52.466Z,28.50
2022-11-26T09:36:20.857Z,28.60
2022-11-26T09:38:49.320Z,28.70
2022-11-26T09:41:22.821Z,28.70
2022-11-26T09:44:09.349Z,28.80
2022-11-26T09:47:10.590Z,28.90
2022-11-26T09:49:41.759Z,29.00
2022-11-26T09:52:12.443Z,29.10
2022-11-26T09:54:41.241Z,29.10
2022-11-26T09:57:23.842Z,29.20
2022-11-26T09:59:54.662Z,29.30
2022-11-26T10:02:23.263Z,29.40
2022-11-26T10:04:51.955Z,29.40
2022-11-26T10:07:26.179Z,29.60
2022-11-26T10:10:16.215Z,29.60
2022-11-26T10:13:17.214Z,29.60
2022-11-26T10:16:19.912Z,29.40
2022-11-26T10:19:03.992Z,29.30
2022-11-26T10:21:58.813Z,29.30
2022-11-26T10:24:33.864Z,29.20
2022-11-26T10:27:11.455Z,29.30
2022-11-26T10:29:43.634Z,29.20
2022-11-26T10:32:48.464Z,29.20
2022-11-26T10:35:22.972Z,29.30
2022-11-26T10:37:52.297Z,29.10
2022-11-26T10:40:38.586Z,29.10
2022-11-26T10:43:09.662Z,29.20
2022-11-26T10:45:50.212Z,29.10
2022-11-26T10:48:35.561Z,29.10
2022-11-26T10:51:27.882Z,29.10
2022-11-26T10:53:57.452Z,29.10
2022-11-26T10:56:44.796Z,29.10
2022-11-26T10:59:42.156Z,29.00
2022-11-26T11:02:35.252Z,28.90
2022-11-26T11:05:08.154Z,28.80
2022-11-26T11:07:36.512Z,28.80
2022-11-26T11:10:10.732Z,28.90
2022-11-26T11:12:40.965Z,28.80
2022-11-26T11:15:24.475Z,28.90
2022-11-26T11:18:01.546Z,28.90
2022-11-26T11:20:32.095Z,28.80
2022-11-26T11:23:40.377Z,28.80
2022-11-26T11:26:19.829Z,28.80
2022-11-26T11:28:54.148Z,28.90
2022-11-26T11:31:27.216Z,28.80
2022-11-26T11:34:19.820Z,28.80
2022-11-26T11:37:14.805Z,28.80
2022-11-26T11:39:44.260Z,28.80
2022-11-26T11:42:30.906Z,28.80
2022-11-26T11:45:01.883Z,28.90
2022-11-26T11:47:43.161Z,28.90
2022-11-26T11:50:21.244Z,29.10
2022-11-26T11:53:26.361Z,29.30
2022-11-26T11:56:28.453Z,29.50
2022-11-26T11:58:59.853Z,29.70
2022-11-26T12:01:46.704Z,29.60
2022-11-26T12:04:39.624Z,29.70
2022-11-26T12:07:40.358Z,29.80
2022-11-26T12:10:31.048Z,30.00
2022-11-26T12:13:06.691Z,30.10
2022-11-26T12:15:41.546Z,30.10
2022-11-26T12:18:31.737Z,30.10
2022-11-26T12:21:10.534Z,30.20
2022-11-26T12:23:53.316Z,30.40
2022-11-26T12:26:33.598Z,30.50
2022-11-26T12:29:11.405Z,30.40
2022-11-26T12:31:55.158Z,30.30
2022-11-26T12:34:34.227Z,30.20
2022-11-26T12:37:07.163Z,30.10
2022-11-26T12:39:39.592Z,30.00
2022-11-26T12:42:45.875Z,29.90
2022-11-26T12:45:18.838Z,29.80
2022-11-26T12:48:01.656Z,30.10
2022-11-26T12:50:40.234Z,30.20
2022-11-26T12:53:33.018Z,30.40
2022-11-26T12:56:23.417Z,30.40
2022-11-26T12:59:08.320Z,30.50
2022-11-26T13:01:37.151Z,30.60
2022-11-26T13:04:36.133Z,30.50
2022-11-26T13:07:08.993Z,30.40
2022-11-26T13:09:56.156Z,30.10
2022-11-26T13:12:30.890Z,30.10
2022-11-26T13:15:13.095Z,29.90
2022-11-26T13:17:46.363Z,29.80
2022-11-26T13:20:31.917Z,29.70
2022-11-26T13:23:12.371Z,29.70
2022-11-26T13:25:59.311Z,29.60
2022-11-26T13:28:52.596Z,29.50
2022-11-26T13:31:39.203Z,29.50
2022-11-26T13:34:19.547Z,29.70
2022-11-26T13:37:15.713Z,29.80
2022-11-26T13:40:06.799Z,29.60
2022-11-26T13:42:56.806Z,29.60
2022-11-26T13:45:35.699Z,29.70
2022-11-26T13:48:10.017Z,29.80
2022-11-26T13:51:19.989Z,30.10
2022-11-26T13:54:05.211Z,30.20
2022-11-26T13:56:34.901Z,30.50
2022-11-26T13:59:28.654Z,30.60
2022-11-26T14:01:57.758Z,30.80
2022-11-26T14:04:26.190Z,31.10
2022-11-26T14:07:06.430Z,31.10
2022-11-26T14:09:44.020Z,31.00
2022-11-26T14:12:13.722Z,31.20
2022-11-26T14:14:44.116Z,31.20
2022-11-26T14:17:23.915Z,31.40
2022-11-26T14:19:52.427Z,31.50
2022-11-26T14:22:20.827Z,31.60
2022-11-26T14:24:49.101Z,31.70
2022-11-26T14:27:33.111Z,31.90
2022-11-26T14:30:07.213Z,32.30
2022-11-26T14:32:41.244Z,32.40
2022-11-26T14:35:30.747Z,32.20
2022-11-26T14:38:05.118Z,31.90
2022-11-26T14:40:38.906Z,31.90
2022-11-26T14:43:20.538Z,31.90
2022-11-26T14:46:22.567Z,32.00
2022-11-26T14:48:52.626Z,32.00
2022-11-26T14:51:26.091Z,31.80
2022-11-26T14:53:55.831Z,31.50
2022-11-26T14:56:25.628Z,31.40
2022-11-26T14:59:00.198Z,31.50
2022-11-26T15:01:30.181Z,32.00
2022-11-26T15:04:08.013Z,32.10
2022-11-26T15:06:42.639Z,32.20
2022-11-26T15:09:15.233Z,32.40
2022-11-26T15:11:53.402Z,32.30
2022-11-26T15:14:24.661Z,32.00
2022-11-26T15:16:58.972Z,31.60
2022-11-26T15:19:29.862Z,31.30
2022-11-26T15:21:58.866Z,31.10
2022-11-26T15:24:27.965Z,30.80
2022-11-26T15:26:56.378Z,30.60
2022-11-26T15:29:37.280Z,30.80
2022-11-26T15:32:05.962Z,30.70
2022-11-26T15:34:34.688Z,30.80
2022-11-26T15:37:04.506Z,30.70
2022-11-26T15:39:33.124Z,30.70
2022-11-26T15:42:23.082Z,30.70
2022-11-26T15:44:51.685Z,30.60
2022-11-26T15:47:22.329Z,30.60
2022-11-26T15:49:54.699Z,30.50
2022-11-26T15:52:28.952Z,30.50
2022-11-26T15:55:13.144Z,30.50
2022-11-26T15:57:43.132Z,30.50
2022-11-26T16:00:33.553Z,30.40
2022-11-26T16:03:02.375Z,30.30
2022-11-26T16:05:35.329Z,30.20
2022-11-26T16:08:21.775Z,30.00
2022-11-26T16:10:58.641Z,29.50
2022-11-26T16:13:34.526Z,29.20
2022-11-26T16:16:10.299Z,28.90
2022-11-26T16:19:00.332Z,28.80
2022-11-26T16:21:34.152Z,28.30
2022-11-26T16:24:07.681Z,28.10
2022-11-26T16:27:01.805Z,28.00
2022-11-26T16:29:31.598Z,27.80
2022-11-26T16:32:00.497Z,27.60
2022-11-26T16:34:29.606Z,27.50
2022-11-26T16:37:25.385Z,27.30
2022-11-26T16:40:17.846Z,27.10
2022-11-26T16:42:48.592Z,27.10
2022-11-26T16:45:17.609Z,27.00
2022-11-26T16:47:52.282Z,27.00
2022-11-26T16:50:27.760Z,27.10
2022-11-26T16:52:58.919Z,27.10
2022-11-26T16:55:28.010Z,27.10
2022-11-26T16:57:59.760Z,27.10
2022-11-26T17:00:28.348Z,27.10
2022-11-26T17:02:57.165Z,27.00
2022-11-26T17:05:25.915Z,26.90
2022-11-26T17:07:57.709Z,26.80
2022-11-26T17:10:29.337Z,26.90
2022-11-26T17:12:58.624Z,27.00
2022-11-26T17:15:27.535Z,26.90
2022-11-26T17:18:06.392Z,27.10
2022-11-26T17:20:36.105Z,27.10
2022-11-26T17:23:06.673Z,27.20
2022-11-26T17:25:35.434Z,27.20
2022-11-26T17:28:04.219Z,27.00
2022-11-26T17:30:32.941Z,26.80
2022-11-26T17:33:01.727Z,26.90
2022-11-26T17:35:30.529Z,26.90
2022-11-26T17:37:59.096Z,26.80
2022-11-26T17:40:27.604Z,26.80
2022-11-26T17:42:56.374Z,26.90
2022-11-26T17:45:24.866Z,26.90
2022-11-26T17:47:53.404Z,26.90
2022-11-26T17:50:27.885Z,26.90
2022-11-26T17:52:56.383Z,26.90
2022-11-26T17:55:26.585Z,26.90
2022-11-26T17:57:55.336Z,26.90
2022-11-26T18:00:27.032Z,26.80
2022-11-26T18:02:56.420Z,26.80
2022-11-26T18:05:25.543Z,26.60
2022-11-26T18:07:54.154Z,26.60
2022-11-26T18:10:23.732Z,26.70
2022-11-26T18:12:55.715Z,26.70
2022-11-26T18:15:26.424Z,26.70
2022-11-26T18:17:56.579Z,26.70
2022-11-26T18:20:28.829Z,26.70
2022-11-26T18:22:59.979Z,26.60
2022-11-26T18:25:34.279Z,26.60
2022-11-26T18:28:03.033Z,26.60
2022-11-26T18:30:31.561Z,26.60
2022-11-26T18:32:59.925Z,26.50
2022-11-26T18:35:28.297Z,26.50
2022-11-26T18:37:56.452Z,26.50
2022-11-26T18:40:25.093Z,26.40
2022-11-26T18:42:53.574Z,26.40
2022-11-26T18:45:22.092Z,26.40
2022-11-26T18:47:50.377Z,26.40
2022-11-26T18:50:19.174Z,26.40
2022-11-26T18:52:47.298Z,26.50
2022-11-26T18:55:15.944Z,26.50
2022-11-26T18:57:44.348Z,26.50
2022-11-26T19:00:14.517Z,26.60
2022-11-26T19:02:42.960Z,26.40
2022-11-26T19:05:11.331Z,26.40
2022-11-26T19:07:39.728Z,26.60
2022-11-26T19:10:08.814Z,26.50
2022-11-26T19:12:37.151Z,26.50
2022-11-26T19:15:05.908Z,26.50
2022-11-26T19:17:34.521Z,26.50
2022-11-26T19:20:02.934Z,26.50
2022-11-26T19:22:31.460Z,26.50
2022-11-26T19:25:00.008Z,26.40
2022-11-26T19:27:30.448Z,26.50
2022-11-26T19:30:01.643Z,26.40
2022-11-26T19:32:30.192Z,26.40
2022-11-26T19:35:02.710Z,26.50
2022-11-26T19:37:34.261Z,26.50
2022-11-26T19:40:02.993Z,26.50
2022-11-26T19:42:31.570Z,26.40
2022-11-26T19:45:00.141Z,26.40
2022-11-26T19:47:28.481Z,26.50
2022-11-26T19:49:57.201Z,26.50
2022-11-26T19:52:26.398Z,26.50
2022-11-26T19:54:54.821Z,26.40
2022-11-26T19:57:23.562Z,26.40
2022-11-26T19:59:52.100Z,26.40
2022-11-26T20:02:20.398Z,26.40
2022-11-26T20:04:48.960Z,26.40
2022-11-26T20:07:17.249Z,26.40
2022-11-26T20:09:45.664Z,26.40
2022-11-26T20:12:14.210Z,26.40
2022-11-26T20:14:42.832Z,26.40
2022-11-26T20:17:11.969Z,26.50
2022-11-26T20:19:40.953Z,26.50
2022-11-26T20:22:09.882Z,26.50
2022-11-26T20:24:38.309Z,26.50
2022-11-26T20:27:06.624Z,26.40
2022-11-26T20:29:35.110Z,26.30
2022-11-26T20:32:03.387Z,26.30
2022-11-26T20:34:31.726Z,26.30
2022-11-26T20:37:00.322Z,26.30
2022-11-26T20:39:28.987Z,26.30
2022-11-26T20:41:57.420Z,26.30
2022-11-26T20:44:25.937Z,26.30
2022-11-26T20:46:54.219Z,26.30
2022-11-26T20:49:22.934Z,26.30
2022-11-26T20:51:51.598Z,26.30
2022-11-26T20:54:20.231Z,26.30
2022-11-26T20:56:48.708Z,26.40
2022-11-26T20:59:17.270Z,26.40
2022-11-26T21:01:45.911Z,26.30
2022-11-26T21:04:14.119Z,26.40
2022-11-26T21:06:43.911Z,26.30
2022-11-26T21:09:14.312Z,26.30
2022-11-26T21:11:42.827Z,26.30
2022-11-26T21:14:14.987Z,26.30
2022-11-26T21:16:43.886Z,26.20
2022-11-26T21:19:13.083Z,26.20
2022-11-26T21:21:41.732Z,26.30
2022-11-26T21:24:10.241Z,26.30
2022-11-26T21:26:38.978Z,26.30
2022-11-26T21:29:07.374Z,26.40
2022-11-26T21:31:35.622Z,26.40
2022-11-26T21:34:07.568Z,26.40
2022-11-26T21:36:37.539Z,26.40
2022-11-26T21:39:05.987Z,26.40
2022-11-26T21:41:34.204Z,26.40
2022-11-26T21:44:02.816Z,26.40
2022-11-26T21:46:37.590Z,26.30
2022-11-26T21:49:07.820Z,26.30
2022-11-26T21:51:36.241Z,26.30
2022-11-26T21:54:05.082Z,26.30
2022-11-26T21:56:33.712Z,26.30
2022-11-26T21:59:02.704Z,26.30
2022-11-26T22:01:36.151Z,26.30
2022-11-26T22:04:22.769Z,26.30
2022-11-26T22:06:51.762Z,26.30
2022-11-26T22:09:20.319Z,26.30
2022-11-26T22:11:48.769Z,26.30
2022-11-26T22:14:17.935Z,26.30
2022-11-26T22:16:46.558Z,26.30
2022-11-26T22:19:14.965Z,26.30
2022-11-26T22:21:43.881Z,26.30
2022-11-26T22:24:17.321Z,26.30
2022-11-26T22:26:46.200Z,26.30
2022-11-26T22:29:19.305Z,26.30
2022-11-26T22:31:47.801Z,26.30
2022-11-26T22:34:18.598Z,26.30
2022-11-26T22:36:47.118Z,26.30
2022-11-26T22:39:17.870Z,26.30
2022-11-26T22:41:48.049Z,26.40
2022-11-26T22:44:17.077Z,26.30
2022-11-26T22:46:46.181Z,26.20
2022-11-26T22:49:16.799Z,26.30
2022-11-26T22:51:45.278Z,26.30
2022-11-26T22:54:15.779Z,26.30
2022-11-26T22:56:44.161Z,26.20
2022-11-26T22:59:14.605Z,26.20
2022-11-26T23:01:43.220Z,26.20
2022-11-26T23:04:12.009Z,26.20
2022-11-26T23:06:40.895Z,26.20
2022-11-26T23:09:11.420Z,26.10
2022-11-26T23:11:42.407Z,26.10
2022-11-26T23:14:11.803Z,26.20
2022-11-26T23:16:42.146Z,26.20
2022-11-26T23:19:13.382Z,26.20
2022-11-26T23:21:42.892Z,26.10
2022-11-26T23:24:11.557Z,26.10
2022-11-26T23:26:40.917Z,26.10
2022-11-26T23:29:10.092Z,26.10
2022-11-26T23:31:41.568Z,26.10
2022-11-26T23:34:11.161Z,26.10
2022-11-26T23:36:39.965Z,26.10
2022-11-26T23:39:11.281Z,26.00
2022-11-26T23:41:39.813Z,25.90
2022-11-26T23:44:07.926Z,26.00
2022-11-26T23:46:36.272Z,25.90
2022-11-26T23:49:05.398Z,25.90
2022-11-26T23:51:34.523Z,25.90
2022-11-26T23:54:02.886Z,26.00
2022-11-26T23:56:33.481Z,26.00
2022-11-26T23:59:04.035Z,25.90
